Cimetta, Switzerland
Current Conditions -  °F | °C
As of 3:50 PM on Thursday 30 Oct 2014 (Local Time) from LSZL Reporting Station
Clear Clear  
Wind Chill: 57°   Ceiling: Unl
Heat Index: 57°   Visibility: 6mi
Dew Point: 46°   Wind: 2mph
Humidity: 67%   Direction: NA
Pressure: 30.21"   Gusts: NA
Location:  46.2°N, 8.8°E
Report Text: LSZL 301450Z VRB02KT CAVOK 14/08 Q1023 RMK BLU
Loading
Personal Weather Stations






























Interactive Weather Map
Tropical Storm Tracking
New forecast layout! Learn more

10-Day Weather Forecast

Advertisements
Track Severe Weather on mobile